createdAt,value
2018-01-27T00:01:14.337Z,22.30
2018-01-27T00:04:19.668Z,18.27
2018-01-27T00:07:26.073Z,16.20
2018-01-27T00:10:30.846Z,15.77
2018-01-27T00:13:35.718Z,18.37
2018-01-27T00:16:40.736Z,15.60
2018-01-27T00:19:46.274Z,14.97
2018-01-27T00:22:57.393Z,13.00
2018-01-27T00:26:02.972Z,14.73
2018-01-27T00:29:08.745Z,14.70
2018-01-27T00:32:14.689Z,14.17
2018-01-27T00:35:19.633Z,14.00
2018-01-27T00:38:25.416Z,14.50
2018-01-27T00:41:31.084Z,14.70
2018-01-27T00:44:36.541Z,15.43
2018-01-27T00:47:41.692Z,17.30
2018-01-27T00:50:46.503Z,18.50
2018-01-27T00:53:51.691Z,18.67
2018-01-27T00:56:57.048Z,19.97
2018-01-27T01:00:02.493Z,19.60
2018-01-27T01:03:07.851Z,18.20
2018-01-27T01:06:13.645Z,18.20
2018-01-27T01:09:19.372Z,18.67
2018-01-27T01:12:24.205Z,16.80
2018-01-27T01:15:29.080Z,16.10
2018-01-27T01:18:35.221Z,16.10
2018-01-27T01:21:40.335Z,15.20
2018-01-27T01:24:46.002Z,15.00
2018-01-27T01:27:50.992Z,14.00
2018-01-27T01:30:56.031Z,13.77
2018-01-27T01:34:01.626Z,12.53
2018-01-27T01:37:06.856Z,11.77
2018-01-27T01:40:12.547Z,11.83
2018-01-27T01:43:24.041Z,12.37
2018-01-27T01:46:30.162Z,11.57
2018-01-27T01:49:41.881Z,11.93
2018-01-27T01:52:47.006Z,11.47
2018-01-27T01:55:52.840Z,11.33
2018-01-27T01:58:58.849Z,13.07
2018-01-27T02:02:04.859Z,10.60
2018-01-27T02:05:10.169Z,12.00
2018-01-27T02:08:15.045Z,13.07
2018-01-27T02:11:20.411Z,14.27
2018-01-27T02:14:26.182Z,15.00
2018-01-27T02:17:31.345Z,13.57
2018-01-27T02:20:36.566Z,13.20
2018-01-27T02:23:42.202Z,13.40
2018-01-27T02:26:48.097Z,14.13
2018-01-27T02:29:53.914Z,14.13
2018-01-27T02:32:59.587Z,13.77
2018-01-27T02:36:05.361Z,14.23
2018-01-27T02:39:10.784Z,16.63
2018-01-27T02:42:16.052Z,15.33
2018-01-27T02:45:21.850Z,15.27
2018-01-27T02:48:27.909Z,17.07
2018-01-27T02:51:34.261Z,16.53
2018-01-27T02:54:39.407Z,16.33
2018-01-27T02:57:45.799Z,17.67
2018-01-27T03:00:51.214Z,17.93
2018-01-27T03:03:56.468Z,17.90
2018-01-27T03:07:02.031Z,17.63
2018-01-27T03:10:07.329Z,17.60
2018-01-27T03:13:13.038Z,18.30
2018-01-27T03:16:18.538Z,17.90
2018-01-27T03:19:24.027Z,16.50
2018-01-27T03:22:29.382Z,15.67
2018-01-27T03:25:35.286Z,16.13
2018-01-27T03:28:40.836Z,15.93
2018-01-27T03:31:47.229Z,15.60
2018-01-27T03:34:52.641Z,14.27
2018-01-27T03:37:58.566Z,14.50
2018-01-27T03:41:04.222Z,14.73
2018-01-27T03:44:09.726Z,14.27
2018-01-27T03:47:14.801Z,13.67
2018-01-27T03:50:20.027Z,13.77
2018-01-27T03:53:25.441Z,14.40
2018-01-27T03:56:30.416Z,13.40
2018-01-27T03:59:36.108Z,14.00
2018-01-27T04:02:41.483Z,13.33
2018-01-27T04:05:47.073Z,14.17
2018-01-27T04:08:52.783Z,12.00
2018-01-27T04:11:58.499Z,14.43
2018-01-27T04:15:04.129Z,12.80
2018-01-27T04:18:09.888Z,12.60
2018-01-27T04:21:14.901Z,13.27
2018-01-27T04:24:20.772Z,12.60
2018-01-27T04:27:26.666Z,13.30
2018-01-27T04:30:31.851Z,12.77
2018-01-27T04:33:38.123Z,11.80
2018-01-27T04:36:43.867Z,13.87
2018-01-27T04:39:50.715Z,13.17
2018-01-27T04:42:55.755Z,12.40
2018-01-27T04:46:00.884Z,11.27
2018-01-27T04:49:06.142Z,11.90
2018-01-27T04:52:11.693Z,11.60
2018-01-27T04:55:17.515Z,12.53
2018-01-27T04:58:22.413Z,13.27
2018-01-27T05:01:28.113Z,13.13
2018-01-27T05:04:33.185Z,13.30
2018-01-27T05:07:39.146Z,13.37
2018-01-27T05:10:44.689Z,12.67
2018-01-27T05:13:51.081Z,13.13
2018-01-27T05:16:56.765Z,15.07
2018-01-27T05:20:02.566Z,15.83
2018-01-27T05:23:08.085Z,21.33
2018-01-27T05:26:13.250Z,19.40
2018-01-27T05:29:18.825Z,17.30
2018-01-27T05:32:24.095Z,18.70
2018-01-27T05:35:29.697Z,18.30
2018-01-27T05:38:35.052Z,18.00
2018-01-27T05:41:40.244Z,23.33
2018-01-27T05:44:45.613Z,20.07
2018-01-27T05:47:50.886Z,26.80
2018-01-27T05:50:57.094Z,21.87
2018-01-27T05:54:03.141Z,18.50
2018-01-27T05:57:09.794Z,18.43
2018-01-27T06:00:14.788Z,17.20
2018-01-27T06:03:20.030Z,15.97
2018-01-27T06:06:26.094Z,14.80
2018-01-27T06:09:31.545Z,16.10
2018-01-27T06:12:36.967Z,17.50
2018-01-27T06:15:42.653Z,17.83
2018-01-27T06:18:47.942Z,16.47
2018-01-27T06:21:53.734Z,15.90
2018-01-27T06:24:59.141Z,16.43
2018-01-27T06:28:04.363Z,16.07
2018-01-27T06:31:10.458Z,16.47
2018-01-27T06:34:15.558Z,16.67
2018-01-27T06:37:21.225Z,16.07
2018-01-27T06:40:26.045Z,16.97
2018-01-27T06:43:31.205Z,18.60
2018-01-27T06:46:37.241Z,17.80
2018-01-27T06:49:42.503Z,18.40
2018-01-27T06:52:48.142Z,19.93
2018-01-27T06:55:53.994Z,18.73
2018-01-27T06:58:59.700Z,18.40
2018-01-27T07:02:04.581Z,18.10
2018-01-27T07:05:09.701Z,20.60
2018-01-27T07:08:14.813Z,18.47
2018-01-27T07:11:19.833Z,20.30
2018-01-27T07:14:25.213Z,18.47
2018-01-27T07:17:30.141Z,18.50
2018-01-27T07:20:35.201Z,20.87
2018-01-27T07:23:40.972Z,20.50
2018-01-27T07:26:46.149Z,19.87
2018-01-27T07:29:51.791Z,20.57
2018-01-27T07:32:57.531Z,22.03
2018-01-27T07:36:03.322Z,18.30
2018-01-27T07:39:09.056Z,22.20
2018-01-27T07:42:14.322Z,33.13
2018-01-27T07:45:19.361Z,35.83
2018-01-27T07:48:24.971Z,37.50
2018-01-27T07:51:30.089Z,32.63
2018-01-27T07:54:35.353Z,25.50
2018-01-27T07:57:41.037Z,34.17
2018-01-27T08:00:47.005Z,32.67
2018-01-27T08:03:53.789Z,37.50
2018-01-27T08:06:58.527Z,37.07
2018-01-27T08:10:03.704Z,30.63
2018-01-27T08:13:09.394Z,28.00
2018-01-27T08:16:14.850Z,28.80
2018-01-27T08:19:22.823Z,32.83
2018-01-27T08:22:29.268Z,35.47
2018-01-27T08:25:34.110Z,31.57
2018-01-27T08:28:39.731Z,29.63
2018-01-27T08:31:45.608Z,30.10
2018-01-27T08:34:50.864Z,29.00
2018-01-27T08:37:57.155Z,27.43
2018-01-27T08:41:02.843Z,29.80
2018-01-27T08:44:09.038Z,30.83
2018-01-27T08:47:14.065Z,30.90
2018-01-27T08:50:20.405Z,29.43
2018-01-27T08:53:26.459Z,32.03
2018-01-27T08:56:31.956Z,28.67
2018-01-27T08:59:37.346Z,30.27
2018-01-27T09:02:42.809Z,26.63
2018-01-27T09:05:48.073Z,27.23
2018-01-27T09:08:53.566Z,27.53
2018-01-27T09:11:58.514Z,24.67
2018-01-27T09:15:03.330Z,25.00
2018-01-27T09:18:08.125Z,24.90
2018-01-27T09:21:13.397Z,21.97
2018-01-27T09:24:19.478Z,21.70
2018-01-27T09:27:25.378Z,22.00
2018-01-27T09:30:31.708Z,21.70
2018-01-27T09:33:36.823Z,23.00
2018-01-27T09:36:42.045Z,22.77
2018-01-27T09:39:47.798Z,23.10
2018-01-27T09:42:53.137Z,24.70
2018-01-27T09:45:59.141Z,24.67
2018-01-27T09:49:05.117Z,22.97
2018-01-27T09:52:10.587Z,25.67
2018-01-27T09:55:16.025Z,25.30
2018-01-27T09:58:21.561Z,25.23
2018-01-27T10:01:26.647Z,26.10
2018-01-27T10:04:32.217Z,26.73
2018-01-27T10:07:37.729Z,26.83
2018-01-27T10:10:42.997Z,25.90
2018-01-27T10:13:48.901Z,24.63
2018-01-27T10:16:54.226Z,27.90
2018-01-27T10:19:59.613Z,28.20
2018-01-27T10:23:04.654Z,24.10
2018-01-27T10:26:09.929Z,24.57
2018-01-27T10:29:15.734Z,27.27
2018-01-27T10:32:21.576Z,27.03
2018-01-27T10:35:27.234Z,26.03
2018-01-27T10:38:32.454Z,27.90
2018-01-27T10:41:38.716Z,25.60
2018-01-27T10:44:45.185Z,26.30
2018-01-27T10:47:50.529Z,25.57
2018-01-27T10:50:56.720Z,24.87
2018-01-27T10:54:01.522Z,25.30
2018-01-27T10:57:06.406Z,27.13
2018-01-27T11:00:12.069Z,26.93
2018-01-27T11:03:17.067Z,25.57
2018-01-27T11:06:22.633Z,30.10
2018-01-27T11:09:28.125Z,30.67
2018-01-27T11:12:34.113Z,29.87
2018-01-27T11:15:39.747Z,30.20
2018-01-27T11:18:44.803Z,27.90
2018-01-27T11:21:50.629Z,31.10
2018-01-27T11:24:57.129Z,28.10
2018-01-27T11:28:02.525Z,25.57
2018-01-27T11:31:07.480Z,27.80
2018-01-27T11:34:12.758Z,24.70
2018-01-27T11:37:18.362Z,25.80
2018-01-27T11:40:23.809Z,24.47
2018-01-27T11:43:31.039Z,24.43
2018-01-27T11:46:36.345Z,23.97
2018-01-27T11:49:41.865Z,23.53
2018-01-27T11:52:46.733Z,25.10
2018-01-27T11:55:52.428Z,27.20
2018-01-27T11:58:58.707Z,27.67
2018-01-27T12:02:04.250Z,30.10
2018-01-27T12:05:09.074Z,26.03
2018-01-27T12:08:15.414Z,25.00
2018-01-27T12:11:21.679Z,23.83
2018-01-27T12:14:27.263Z,24.40
2018-01-27T12:17:32.452Z,24.80
2018-01-27T12:20:37.517Z,25.70
2018-01-27T12:23:42.353Z,24.50
2018-01-27T12:26:48.225Z,25.40
2018-01-27T12:29:53.639Z,18.77
2018-01-27T12:32:59.733Z,19.43
2018-01-27T12:36:05.409Z,22.23
2018-01-27T12:39:10.681Z,23.17
2018-01-27T12:42:16.981Z,25.63
2018-01-27T12:45:22.188Z,24.67
2018-01-27T12:48:27.016Z,21.40
2018-01-27T12:51:32.193Z,25.10
2018-01-27T12:54:38.064Z,24.27
2018-01-27T12:57:43.827Z,20.27
2018-01-27T13:00:49.392Z,16.50
2018-01-27T13:03:55.641Z,19.87
2018-01-27T13:07:01.493Z,17.70
2018-01-27T13:10:06.894Z,19.90
2018-01-27T13:13:11.983Z,19.90
2018-01-27T13:16:18.012Z,20.87
2018-01-27T13:19:23.137Z,21.47
2018-01-27T13:22:29.029Z,21.77
2018-01-27T13:25:34.825Z,22.50
2018-01-27T13:28:41.381Z,21.70
2018-01-27T13:31:47.457Z,23.50
2018-01-27T13:34:53.220Z,25.80
2018-01-27T13:37:58.609Z,22.20
2018-01-27T13:41:04.309Z,24.13
2018-01-27T13:44:09.501Z,22.60
2018-01-27T13:47:15.010Z,21.80
2018-01-27T13:50:20.722Z,23.53
2018-01-27T13:53:26.522Z,22.03
2018-01-27T13:56:32.335Z,22.27
2018-01-27T13:59:37.340Z,20.30
2018-01-27T14:02:43.550Z,20.43
2018-01-27T14:05:49.244Z,18.57
2018-01-27T14:08:54.229Z,20.90
2018-01-27T14:11:59.762Z,20.40
2018-01-27T14:15:05.500Z,23.33
2018-01-27T14:18:11.541Z,22.07
2018-01-27T14:21:17.709Z,20.57
2018-01-27T14:24:22.829Z,19.37
2018-01-27T14:27:28.293Z,21.00
2018-01-27T14:30:36.987Z,20.10
2018-01-27T14:33:42.654Z,19.07
2018-01-27T14:36:54.497Z,19.87
2018-01-27T14:40:00.240Z,20.33
2018-01-27T14:43:05.320Z,20.93
2018-01-27T14:46:10.707Z,19.80
2018-01-27T14:49:17.051Z,19.67
2018-01-27T14:52:22.927Z,19.07
2018-01-27T14:55:27.921Z,20.27
2018-01-27T14:58:33.009Z,20.83
2018-01-27T15:01:38.405Z,18.67
2018-01-27T15:04:43.398Z,20.57
2018-01-27T15:07:49.721Z,20.43
2018-01-27T15:10:55.398Z,22.30
2018-01-27T15:14:01.246Z,22.73
2018-01-27T15:17:06.544Z,20.30
2018-01-27T15:20:12.486Z,20.50
2018-01-27T15:23:17.749Z,20.60
2018-01-27T15:26:22.835Z,17.13
2018-01-27T15:29:28.792Z,18.23
2018-01-27T15:32:34.384Z,17.27
2018-01-27T15:35:40.910Z,16.80
2018-01-27T15:38:47.414Z,20.53
2018-01-27T15:41:52.788Z,16.80
2018-01-27T15:44:58.613Z,18.90
2018-01-27T15:48:04.239Z,17.97
2018-01-27T15:51:09.899Z,18.30
2018-01-27T15:54:15.551Z,20.50
2018-01-27T15:57:20.529Z,18.87
2018-01-27T16:00:26.365Z,16.70
2018-01-27T16:03:32.157Z,17.27
2018-01-27T16:06:37.151Z,17.30
2018-01-27T16:09:42.744Z,16.07
2018-01-27T16:12:47.983Z,16.70
2018-01-27T16:15:53.157Z,17.10
2018-01-27T16:18:58.962Z,18.17
2018-01-27T16:22:04.021Z,17.07
2018-01-27T16:25:09.463Z,17.30
2018-01-27T16:28:14.605Z,18.37
2018-01-27T16:31:20.768Z,15.90
2018-01-27T16:34:26.449Z,17.23
2018-01-27T16:37:31.526Z,16.47
2018-01-27T16:40:36.488Z,17.43
2018-01-27T16:43:42.233Z,15.60
2018-01-27T16:46:49.179Z,16.17
2018-01-27T16:49:54.093Z,18.00
2018-01-27T16:52:59.678Z,18.23
2018-01-27T16:56:05.244Z,17.80
2018-01-27T16:59:11.055Z,17.60
2018-01-27T17:02:16.901Z,18.90
2018-01-27T17:05:21.864Z,20.40
2018-01-27T17:08:27.281Z,16.27
2018-01-27T17:11:32.701Z,17.93
2018-01-27T17:14:39.225Z,17.93
2018-01-27T17:17:44.290Z,44.67
2018-01-27T17:20:50.629Z,24.63
2018-01-27T17:23:55.968Z,26.80
2018-01-27T17:27:00.950Z,35.00
2018-01-27T17:30:06.231Z,23.17
2018-01-27T17:33:11.425Z,22.17
2018-01-27T17:36:17.101Z,17.53
2018-01-27T17:39:22.797Z,18.63
2018-01-27T17:42:28.765Z,18.30
2018-01-27T17:45:34.165Z,18.87
2018-01-27T17:48:39.961Z,19.97
2018-01-27T17:51:45.693Z,18.97
2018-01-27T17:54:50.396Z,19.23
2018-01-27T17:57:55.880Z,18.93
2018-01-27T18:01:01.593Z,18.93
2018-01-27T18:04:07.683Z,17.30
2018-01-27T18:07:13.310Z,19.17
2018-01-27T18:10:18.350Z,17.67
2018-01-27T18:13:23.884Z,20.30
2018-01-27T18:16:29.082Z,20.00
2018-01-27T18:19:34.541Z,21.00
2018-01-27T18:22:40.261Z,20.17
2018-01-27T18:25:45.914Z,19.57
2018-01-27T18:28:50.847Z,20.10
2018-01-27T18:31:57.137Z,19.57
2018-01-27T18:35:02.612Z,18.03
2018-01-27T18:38:07.853Z,21.00
2018-01-27T18:41:14.261Z,17.33
2018-01-27T18:44:19.701Z,16.10
2018-01-27T18:47:25.284Z,16.13
2018-01-27T18:50:30.424Z,16.97
2018-01-27T18:53:35.423Z,16.27
2018-01-27T18:56:41.960Z,15.80
2018-01-27T18:59:48.469Z,16.50
2018-01-27T19:02:54.234Z,15.80
2018-01-27T19:05:59.754Z,16.27
2018-01-27T19:09:06.168Z,17.30
2018-01-27T19:12:12.537Z,16.50
2018-01-27T19:15:18.225Z,16.53
2018-01-27T19:18:24.142Z,16.37
2018-01-27T19:21:29.005Z,17.60
2018-01-27T19:24:36.060Z,18.20
2018-01-27T19:27:42.281Z,18.03
2018-01-27T19:30:47.308Z,20.63
2018-01-27T19:33:52.117Z,20.47
2018-01-27T19:36:57.220Z,21.80
2018-01-27T19:40:03.668Z,28.37
2018-01-27T19:43:09.981Z,28.00
2018-01-27T19:46:15.734Z,22.43
2018-01-27T19:49:21.355Z,20.60
2018-01-27T19:52:27.370Z,22.67
2018-01-27T19:55:34.019Z,21.43
2018-01-27T19:58:39.806Z,22.00
2018-01-27T20:01:45.319Z,21.67
2018-01-27T20:04:50.636Z,19.37
2018-01-27T20:07:56.605Z,20.63
2018-01-27T20:11:09.985Z,20.30
2018-01-27T20:14:14.857Z,19.07
2018-01-27T20:17:20.267Z,22.20
2018-01-27T20:20:26.117Z,20.50
2018-01-27T20:23:31.456Z,21.10
2018-01-27T20:26:37.386Z,24.57
2018-01-27T20:29:42.741Z,22.20
2018-01-27T20:32:48.491Z,25.00
2018-01-27T20:35:55.193Z,22.63
2018-01-27T20:39:00.800Z,24.13
2018-01-27T20:42:06.930Z,25.40
2018-01-27T20:45:12.375Z,26.30
2018-01-27T20:48:18.092Z,25.10
2018-01-27T20:51:23.117Z,20.40
2018-01-27T20:54:28.215Z,25.63
2018-01-27T20:57:33.715Z,25.57
2018-01-27T21:00:39.478Z,22.87
2018-01-27T21:03:44.747Z,26.53
2018-01-27T21:06:50.473Z,24.97
2018-01-27T21:09:55.918Z,25.10
2018-01-27T21:13:02.760Z,24.70
2018-01-27T21:16:08.298Z,24.93
2018-01-27T21:19:15.119Z,25.10
2018-01-27T21:22:19.990Z,24.50
2018-01-27T21:25:25.344Z,24.57
2018-01-27T21:28:30.829Z,24.60
2018-01-27T21:31:35.706Z,25.10
2018-01-27T21:34:41.169Z,23.37
2018-01-27T21:37:47.661Z,23.27
2018-01-27T21:40:52.549Z,22.80
2018-01-27T21:43:57.760Z,21.87
2018-01-27T21:47:02.977Z,22.37
2018-01-27T21:50:08.354Z,21.80
2018-01-27T21:53:14.605Z,23.57
2018-01-27T21:56:20.109Z,25.53
2018-01-27T21:59:25.105Z,24.17
2018-01-27T22:02:30.347Z,25.70
2018-01-27T22:05:35.782Z,24.80
2018-01-27T22:08:40.897Z,25.33
2018-01-27T22:11:46.413Z,24.30
2018-01-27T22:14:52.010Z,24.27
2018-01-27T22:17:56.952Z,24.67
2018-01-27T22:21:02.802Z,25.93
2018-01-27T22:24:07.818Z,26.87
2018-01-27T22:27:14.415Z,26.50
2018-01-27T22:30:20.177Z,25.27
2018-01-27T22:33:26.353Z,28.13
2018-01-27T22:36:32.174Z,29.83
2018-01-27T22:39:37.137Z,29.87
2018-01-27T22:42:42.829Z,28.57
2018-01-27T22:45:48.461Z,28.00
2018-01-27T22:48:54.502Z,29.70
2018-01-27T22:52:00.147Z,29.50
2018-01-27T22:55:05.271Z,28.80
2018-01-27T22:58:11.526Z,30.93
2018-01-27T23:01:23.404Z,30.37
2018-01-27T23:04:28.797Z,31.07
2018-01-27T23:07:33.759Z,31.63
2018-01-27T23:10:39.303Z,30.27
2018-01-27T23:13:45.417Z,29.60
2018-01-27T23:16:50.673Z,31.17
2018-01-27T23:19:56.646Z,31.50
2018-01-27T23:23:01.787Z,31.80
2018-01-27T23:26:06.734Z,32.67
2018-01-27T23:29:12.209Z,32.50
2018-01-27T23:32:17.469Z,33.30
2018-01-27T23:35:22.734Z,30.90
2018-01-27T23:38:29.186Z,28.23
2018-01-27T23:41:34.311Z,27.60
2018-01-27T23:44:39.650Z,27.40
2018-01-27T23:47:45.086Z,25.80
2018-01-27T23:50:51.462Z,25.80
2018-01-27T23:53:56.265Z,23.17
2018-01-27T23:57:01.605Z,24.13
